createdAt,value
2019-03-21T00:00:56.632Z,87.76
2019-03-21T00:01:56.623Z,88.07
2019-03-21T00:02:56.611Z,87.87
2019-03-21T00:03:56.625Z,87.76
2019-03-21T00:04:56.589Z,88.11
2019-03-21T00:05:56.581Z,89.36
2019-03-21T00:06:56.567Z,88.78
2019-03-21T00:07:56.562Z,89.92
2019-03-21T00:08:56.566Z,90.33
2019-03-21T00:09:56.534Z,90.23
2019-03-21T00:10:56.521Z,90.85
2019-03-21T00:11:56.555Z,90.54
2019-03-21T00:12:56.499Z,91.06
2019-03-21T00:14:06.666Z,91.68
2019-03-21T00:14:57.479Z,92.36
2019-03-21T00:15:56.468Z,92.05
2019-03-21T00:16:56.464Z,91.53
2019-03-21T00:17:56.443Z,91.08
2019-03-21T00:18:56.457Z,91.08
2019-03-21T00:19:56.434Z,91.08
2019-03-21T00:20:56.411Z,90.62
2019-03-21T00:21:56.402Z,90.45
2019-03-21T00:22:56.394Z,89.83
2019-03-21T00:23:56.411Z,90.25
2019-03-21T00:24:56.372Z,90.14
2019-03-21T00:25:56.366Z,90.25
2019-03-21T00:26:56.348Z,90.20
2019-03-21T00:27:56.337Z,90.20
2019-03-21T00:28:56.324Z,89.48
2019-03-21T00:29:56.336Z,88.76
2019-03-21T00:30:56.304Z,89.17
2019-03-21T00:31:56.295Z,89.58
2019-03-21T00:32:56.279Z,89.38
2019-03-21T00:33:56.275Z,88.65
2019-03-21T00:34:56.281Z,88.69
2019-03-21T00:35:56.244Z,88.48
2019-03-21T00:36:56.237Z,88.59
2019-03-21T00:37:56.231Z,88.79
2019-03-21T00:38:56.212Z,89.36
2019-03-21T00:39:56.224Z,89.00
2019-03-21T00:40:56.195Z,89.36
2019-03-21T00:41:56.183Z,89.15
2019-03-21T00:42:56.171Z,89.56
2019-03-21T00:43:56.160Z,89.56
2019-03-21T00:44:56.169Z,90.39
2019-03-21T00:45:56.136Z,90.39
2019-03-21T00:46:56.127Z,90.35
2019-03-21T00:47:56.112Z,89.73
2019-03-21T00:48:56.105Z,90.45
2019-03-21T00:49:56.114Z,90.25
2019-03-21T00:50:56.079Z,90.66
2019-03-21T00:51:56.068Z,89.94
2019-03-21T00:52:56.062Z,89.73
2019-03-21T00:53:56.049Z,89.11
2019-03-21T00:54:56.073Z,89.11
2019-03-21T00:55:56.025Z,89.48
2019-03-21T00:56:56.015Z,88.45
2019-03-21T00:57:58.458Z,88.86
2019-03-21T00:58:55.999Z,87.97
2019-03-21T00:59:56.011Z,88.07
2019-03-21T01:00:55.971Z,88.48
2019-03-21T01:01:55.963Z,88.48
2019-03-21T01:02:55.948Z,88.90
2019-03-21T01:03:55.944Z,89.52
2019-03-21T01:04:55.954Z,89.11
2019-03-21T01:05:55.924Z,88.69
2019-03-21T01:06:55.910Z,88.90
2019-03-21T01:07:55.893Z,89.11
2019-03-21T01:08:55.885Z,89.21
2019-03-21T01:09:55.915Z,88.53
2019-03-21T01:10:55.862Z,88.84
2019-03-21T01:11:55.858Z,89.56
2019-03-21T01:12:55.842Z,89.29
2019-03-21T01:13:55.827Z,90.44
2019-03-21T01:14:55.817Z,90.44
2019-03-21T01:15:55.829Z,90.54
2019-03-21T01:16:55.799Z,90.23
2019-03-21T01:17:55.787Z,90.75
2019-03-21T01:18:55.780Z,91.27
2019-03-21T01:19:55.762Z,90.54
2019-03-21T01:20:55.780Z,90.33
2019-03-21T01:21:55.741Z,90.54
2019-03-21T01:22:55.731Z,90.12
2019-03-21T01:23:55.718Z,90.91
2019-03-21T01:24:55.707Z,90.60
2019-03-21T01:25:55.718Z,90.19
2019-03-21T01:26:55.683Z,89.83
2019-03-21T01:27:55.675Z,90.08
2019-03-21T01:28:55.667Z,89.25
2019-03-21T01:29:55.652Z,89.77
2019-03-21T01:30:55.660Z,89.56
2019-03-21T01:31:55.628Z,89.36
2019-03-21T01:32:55.623Z,89.73
2019-03-21T01:33:55.608Z,90.66
2019-03-21T01:34:55.596Z,89.31
2019-03-21T01:35:55.607Z,88.59
2019-03-21T01:36:55.576Z,89.56
2019-03-21T01:37:55.561Z,88.42
2019-03-21T01:38:55.553Z,88.26
2019-03-21T01:39:55.540Z,89.40
2019-03-21T01:40:55.554Z,89.40
2019-03-21T01:41:55.518Z,89.19
2019-03-21T01:42:55.510Z,89.50
2019-03-21T01:43:55.494Z,89.50
2019-03-21T01:44:55.485Z,90.33
2019-03-21T01:45:55.497Z,89.36
2019-03-21T01:46:55.466Z,88.84
2019-03-21T01:47:55.451Z,89.61
2019-03-21T01:48:55.439Z,89.25
2019-03-21T01:49:55.429Z,88.84
2019-03-21T01:50:55.444Z,88.73
2019-03-21T01:51:55.409Z,89.25
2019-03-21T01:52:55.396Z,88.53
2019-03-21T01:53:55.385Z,89.11
2019-03-21T01:54:55.376Z,89.00
2019-03-21T01:55:55.371Z,88.90
2019-03-21T01:56:55.376Z,88.53
2019-03-21T01:57:55.340Z,88.94
2019-03-21T01:58:55.330Z,88.73
2019-03-21T01:59:55.319Z,89.25
2019-03-21T02:00:55.308Z,89.15
2019-03-21T02:01:55.325Z,89.09
2019-03-21T02:02:55.287Z,89.40
2019-03-21T02:03:55.278Z,89.50
2019-03-21T02:04:55.262Z,89.92
2019-03-21T02:05:55.255Z,90.64
2019-03-21T02:06:55.262Z,89.25
2019-03-21T02:07:55.236Z,89.92
2019-03-21T02:08:55.216Z,89.04
2019-03-21T02:09:55.206Z,89.56
2019-03-21T02:10:55.200Z,89.46
2019-03-21T02:11:55.212Z,89.56
2019-03-21T02:12:55.181Z,89.46
2019-03-21T02:13:55.165Z,89.46
2019-03-21T02:14:55.153Z,88.88
2019-03-21T02:15:55.140Z,87.63
2019-03-21T02:16:55.164Z,88.61
2019-03-21T02:17:55.120Z,89.75
2019-03-21T02:18:55.113Z,90.62
2019-03-21T02:19:55.098Z,90.27
2019-03-21T02:20:55.083Z,90.69
2019-03-21T02:21:55.076Z,90.58
2019-03-21T02:22:55.086Z,90.48
2019-03-21T02:23:55.055Z,90.79
2019-03-21T02:24:55.045Z,90.69
2019-03-21T02:25:55.030Z,90.37
2019-03-21T02:26:55.022Z,90.48
2019-03-21T02:27:55.028Z,90.48
2019-03-21T02:28:54.996Z,90.41
2019-03-21T02:29:54.991Z,90.83
2019-03-21T02:30:54.975Z,90.37
2019-03-21T02:31:54.965Z,90.17
2019-03-21T02:32:54.987Z,90.37
2019-03-21T02:33:54.946Z,90.69
2019-03-21T02:34:54.930Z,89.13
2019-03-21T02:35:54.917Z,89.54
2019-03-21T02:36:54.909Z,89.69
2019-03-21T02:37:54.918Z,90.83
2019-03-21T02:38:54.885Z,90.20
2019-03-21T02:39:59.983Z,91.45
2019-03-21T02:40:55.862Z,91.66
2019-03-21T02:41:54.856Z,90.93
2019-03-21T02:42:54.865Z,91.55
2019-03-21T02:43:54.841Z,91.24
2019-03-21T02:45:07.585Z,91.35
2019-03-21T02:45:55.808Z,91.31
2019-03-21T02:46:54.802Z,90.52
2019-03-21T02:47:54.810Z,91.52
2019-03-21T02:48:54.776Z,91.20
2019-03-21T02:49:54.767Z,90.79
2019-03-21T02:50:54.752Z,91.10
2019-03-21T02:51:54.743Z,91.76
2019-03-21T02:52:54.758Z,91.52
2019-03-21T02:53:54.723Z,91.10
2019-03-21T02:54:54.708Z,91.52
2019-03-21T02:55:54.698Z,90.64
2019-03-21T02:56:54.689Z,90.06
2019-03-21T02:57:54.698Z,89.96
2019-03-21T02:58:54.701Z,89.34
2019-03-21T02:59:54.656Z,90.02
2019-03-21T03:00:54.645Z,89.34
2019-03-21T03:01:54.640Z,89.34
2019-03-21T03:02:54.653Z,89.44
2019-03-21T03:03:54.608Z,89.75
2019-03-21T03:04:54.599Z,89.06
2019-03-21T03:05:54.619Z,89.69
2019-03-21T03:06:54.580Z,89.58
2019-03-21T03:07:54.568Z,89.52
2019-03-21T03:08:54.578Z,90.14
2019-03-21T03:09:54.579Z,90.00
2019-03-21T03:10:54.545Z,90.31
2019-03-21T03:11:54.530Z,90.62
2019-03-21T03:12:54.526Z,90.41
2019-03-21T03:13:54.524Z,90.00
2019-03-21T03:14:54.488Z,90.93
2019-03-21T03:15:54.587Z,90.62
2019-03-21T03:16:54.468Z,90.31
2019-03-21T03:17:54.461Z,90.20
2019-03-21T03:18:54.480Z,90.10
2019-03-21T03:19:54.437Z,90.87
2019-03-21T03:20:54.421Z,90.93
2019-03-21T03:21:54.406Z,90.72
2019-03-21T03:22:54.401Z,91.14
2019-03-21T03:23:54.408Z,90.72
2019-03-21T03:24:54.374Z,91.14
2019-03-21T03:25:54.364Z,90.72
2019-03-21T03:26:54.357Z,91.76
2019-03-21T03:27:54.347Z,91.35
2019-03-21T03:28:54.371Z,91.24
2019-03-21T03:29:54.331Z,91.35
2019-03-21T03:30:54.348Z,91.45
2019-03-21T03:31:54.355Z,91.45
2019-03-21T03:32:54.306Z,91.35
2019-03-21T03:33:54.341Z,92.18
2019-03-21T03:34:54.271Z,91.93
2019-03-21T03:35:54.266Z,91.00
2019-03-21T03:36:54.248Z,91.20
2019-03-21T03:37:54.236Z,91.52
2019-03-21T03:38:54.272Z,90.75
2019-03-21T03:39:54.223Z,89.92
2019-03-21T03:40:54.205Z,89.40
2019-03-21T03:41:54.199Z,89.50
2019-03-21T03:42:54.182Z,89.54
2019-03-21T03:43:54.175Z,90.58
2019-03-21T03:44:54.182Z,90.17
2019-03-21T03:45:54.147Z,89.86
2019-03-21T03:46:54.138Z,90.17
2019-03-21T03:47:54.124Z,90.41
2019-03-21T03:48:54.127Z,90.69
2019-03-21T03:49:54.134Z,90.79
2019-03-21T03:50:54.094Z,90.89
2019-03-21T03:51:54.083Z,91.00
2019-03-21T03:52:54.076Z,90.58
2019-03-21T03:53:54.063Z,90.37
2019-03-21T03:54:54.072Z,90.33
2019-03-21T03:55:54.044Z,90.23
2019-03-21T03:56:54.037Z,90.33
2019-03-21T03:57:54.019Z,90.33
2019-03-21T03:58:54.007Z,90.60
2019-03-21T03:59:54.025Z,89.36
2019-03-21T04:00:53.989Z,89.25
2019-03-21T04:01:53.976Z,89.36
2019-03-21T04:02:53.963Z,89.29
2019-03-21T04:03:53.954Z,89.44
2019-03-21T04:04:53.966Z,89.44
2019-03-21T04:05:53.941Z,89.89
2019-03-21T04:06:53.919Z,90.41
2019-03-21T04:07:53.908Z,89.89
2019-03-21T04:08:53.904Z,90.83
2019-03-21T04:09:53.913Z,90.62
2019-03-21T04:10:53.874Z,90.72
2019-03-21T04:11:53.867Z,91.72
2019-03-21T04:12:53.853Z,91.20
2019-03-21T04:13:53.846Z,91.00
2019-03-21T04:14:53.858Z,90.44
2019-03-21T04:15:54.311Z,90.44
2019-03-21T04:16:53.815Z,90.02
2019-03-21T04:17:53.802Z,89.50
2019-03-21T04:18:53.787Z,89.36
2019-03-21T04:19:53.805Z,89.36
2019-03-21T04:20:53.769Z,88.94
2019-03-21T04:21:53.754Z,88.63
2019-03-21T04:22:53.745Z,88.05
2019-03-21T04:23:53.730Z,88.15
2019-03-21T04:24:53.781Z,88.57
2019-03-21T04:25:53.710Z,88.92
2019-03-21T04:26:53.695Z,88.20
2019-03-21T04:27:53.687Z,87.57
2019-03-21T04:28:53.677Z,88.71
2019-03-21T04:29:53.662Z,89.17
2019-03-21T04:30:53.673Z,89.06
2019-03-21T04:31:53.640Z,89.58
2019-03-21T04:32:53.635Z,88.75
2019-03-21T04:33:53.620Z,88.65
2019-03-21T04:34:53.606Z,88.85
2019-03-21T04:35:53.621Z,89.23
2019-03-21T04:36:53.592Z,90.00
2019-03-21T04:37:53.581Z,89.23
2019-03-21T04:38:53.568Z,89.69
2019-03-21T04:39:53.553Z,89.58
2019-03-21T04:40:53.564Z,89.58
2019-03-21T04:41:53.531Z,90.83
2019-03-21T04:42:53.521Z,90.72
2019-03-21T04:43:53.509Z,90.10
2019-03-21T04:44:53.494Z,90.48
2019-03-21T04:46:02.865Z,90.41
2019-03-21T04:46:54.476Z,90.41
2019-03-21T04:47:53.466Z,90.62
2019-03-21T04:48:53.456Z,90.31
2019-03-21T04:49:53.442Z,90.31
2019-03-21T04:50:53.451Z,90.52
2019-03-21T04:51:53.422Z,90.62
2019-03-21T04:52:53.409Z,89.48
2019-03-21T04:53:53.718Z,90.41
2019-03-21T04:54:53.403Z,90.41
2019-03-21T04:55:53.403Z,90.41
2019-03-21T04:56:53.369Z,90.87
2019-03-21T04:57:53.359Z,91.60
2019-03-21T04:58:53.344Z,91.08
2019-03-21T04:59:53.368Z,91.39
2019-03-21T05:00:53.440Z,91.55
2019-03-21T05:01:53.316Z,91.35
2019-03-21T05:02:53.301Z,90.83
2019-03-21T05:03:53.293Z,90.31
2019-03-21T05:04:53.282Z,90.52
2019-03-21T05:05:53.272Z,90.20
2019-03-21T05:06:53.282Z,90.45
2019-03-21T05:07:53.247Z,90.83
2019-03-21T05:08:53.238Z,90.93
2019-03-21T05:09:53.231Z,90.52
2019-03-21T05:10:53.215Z,90.72
2019-03-21T05:11:53.237Z,90.10
2019-03-21T05:12:53.197Z,90.62
2019-03-21T05:13:53.182Z,90.93
2019-03-21T05:14:53.172Z,90.17
2019-03-21T05:15:53.164Z,89.58
2019-03-21T05:16:53.173Z,90.62
2019-03-21T05:17:53.138Z,90.41
2019-03-21T05:18:53.128Z,90.52
2019-03-21T05:19:53.119Z,90.37
2019-03-21T05:20:53.110Z,90.58
2019-03-21T05:21:53.133Z,89.96
2019-03-21T05:22:53.092Z,89.79
2019-03-21T05:23:53.074Z,89.06
2019-03-21T05:24:53.063Z,89.58
2019-03-21T05:25:53.051Z,89.58
2019-03-21T05:26:53.070Z,90.00
2019-03-21T05:27:53.031Z,90.48
2019-03-21T05:28:53.053Z,89.34
2019-03-21T05:29:53.006Z,89.34
2019-03-21T05:30:52.996Z,89.54
2019-03-21T05:31:53.006Z,88.92
2019-03-21T05:32:52.973Z,89.13
2019-03-21T05:33:52.974Z,89.48
2019-03-21T05:34:52.952Z,89.37
2019-03-21T05:35:52.943Z,89.48
2019-03-21T05:36:52.982Z,89.37
2019-03-21T05:37:52.920Z,89.69
2019-03-21T05:38:52.910Z,89.83
2019-03-21T05:39:52.898Z,90.52
2019-03-21T05:40:52.891Z,90.52
2019-03-21T05:41:52.905Z,90.62
2019-03-21T05:42:52.873Z,90.62
2019-03-21T05:43:52.858Z,90.62
2019-03-21T05:44:52.846Z,89.58
2019-03-21T05:45:52.834Z,89.89
2019-03-21T05:46:52.850Z,90.20
2019-03-21T05:47:52.815Z,90.00
2019-03-21T05:48:52.803Z,90.58
2019-03-21T05:49:52.811Z,90.83
2019-03-21T05:50:52.786Z,89.96
2019-03-21T05:51:52.798Z,89.65
2019-03-21T05:52:52.764Z,89.65
2019-03-21T05:53:52.749Z,89.58
2019-03-21T05:54:52.737Z,89.37
2019-03-21T05:55:52.730Z,90.41
2019-03-21T05:56:52.753Z,90.27
2019-03-21T05:57:52.707Z,90.48
2019-03-21T05:58:52.695Z,90.12
2019-03-21T05:59:52.682Z,89.50
2019-03-21T06:00:52.672Z,89.19
2019-03-21T06:01:52.665Z,88.63
2019-03-21T06:02:52.677Z,88.32
2019-03-21T06:03:52.669Z,88.11
2019-03-21T06:04:52.633Z,87.49
2019-03-21T06:05:52.618Z,88.11
2019-03-21T06:06:52.605Z,87.74
2019-03-21T06:07:52.621Z,87.63
2019-03-21T06:08:52.584Z,88.94
2019-03-21T06:09:52.577Z,88.11
2019-03-21T06:10:52.562Z,88.11
2019-03-21T06:11:52.554Z,87.90
2019-03-21T06:12:52.595Z,88.01
2019-03-21T06:13:52.534Z,87.07
2019-03-21T06:14:52.518Z,88.01
2019-03-21T06:15:52.509Z,88.01
2019-03-21T06:16:52.536Z,87.45
2019-03-21T06:17:52.521Z,87.55
2019-03-21T06:18:52.482Z,86.52
2019-03-21T06:19:52.464Z,86.00
2019-03-21T06:20:52.455Z,86.41
2019-03-21T06:21:52.441Z,85.89
2019-03-21T06:22:52.436Z,86.72
2019-03-21T06:23:52.444Z,85.83
2019-03-21T06:24:52.411Z,87.59
2019-03-21T06:25:52.417Z,87.76
2019-03-21T06:26:52.426Z,87.07
2019-03-21T06:27:52.379Z,87.35
2019-03-21T06:28:52.406Z,86.47
2019-03-21T06:29:52.360Z,85.86
2019-03-21T06:30:52.341Z,86.33
2019-03-21T06:31:52.336Z,85.71
2019-03-21T06:32:52.319Z,86.19
2019-03-21T06:33:52.337Z,86.40
2019-03-21T06:34:52.298Z,85.57
2019-03-21T06:35:52.288Z,84.53
2019-03-21T06:36:52.282Z,84.50
2019-03-21T06:37:52.267Z,83.77
2019-03-21T06:38:52.278Z,84.29
2019-03-21T06:39:52.259Z,83.73
2019-03-21T06:40:52.236Z,83.53
2019-03-21T06:41:52.256Z,83.73
2019-03-21T06:42:52.216Z,83.53
2019-03-21T06:43:52.227Z,82.39
2019-03-21T06:44:52.189Z,83.22
2019-03-21T06:45:52.185Z,82.35
2019-03-21T06:46:52.172Z,82.15
2019-03-21T06:47:53.209Z,82.35
2019-03-21T06:48:52.175Z,82.42
2019-03-21T06:49:52.157Z,82.21
2019-03-21T06:50:52.121Z,82.17
2019-03-21T06:51:52.114Z,81.76
2019-03-21T06:52:52.102Z,82.03
2019-03-21T06:53:52.088Z,81.58
2019-03-21T06:54:52.103Z,80.20
2019-03-21T06:55:52.070Z,79.38
2019-03-21T06:56:52.061Z,79.27
2019-03-21T06:57:52.045Z,79.55
2019-03-21T06:58:52.714Z,78.62
2019-03-21T06:59:52.047Z,78.17
2019-03-21T07:00:52.017Z,78.48
2019-03-21T07:01:52.001Z,78.17
2019-03-21T07:02:52.047Z,78.17
2019-03-21T07:03:52.032Z,77.83
2019-03-21T07:04:52.014Z,77.86
2019-03-21T07:05:51.980Z,77.72
2019-03-21T07:06:51.975Z,77.72
2019-03-21T07:07:51.938Z,77.42
2019-03-21T07:08:51.951Z,77.42
2019-03-21T07:09:51.943Z,77.42
2019-03-21T07:10:51.907Z,77.42
2019-03-21T07:11:51.892Z,77.21
2019-03-21T07:12:51.882Z,76.35
2019-03-21T07:13:51.875Z,76.86
2019-03-21T07:14:51.880Z,76.45
2019-03-21T07:15:51.855Z,76.04
2019-03-21T07:17:00.126Z,76.45
2019-03-21T07:17:52.826Z,76.35
2019-03-21T07:18:51.819Z,75.90
2019-03-21T07:19:51.839Z,76.21
2019-03-21T07:20:51.819Z,75.70
2019-03-21T07:21:51.781Z,75.70
2019-03-21T07:22:51.769Z,75.97
2019-03-21T07:23:51.776Z,74.95
2019-03-21T07:24:51.804Z,75.76
2019-03-21T07:25:51.747Z,75.15
2019-03-21T07:26:51.728Z,75.15
2019-03-21T07:27:51.722Z,75.35
2019-03-21T07:28:51.717Z,74.77
2019-03-21T07:29:51.731Z,74.87
2019-03-21T07:30:51.689Z,73.85
2019-03-21T07:31:51.675Z,73.54
2019-03-21T07:32:51.671Z,73.30
2019-03-21T07:33:51.654Z,73.30
2019-03-21T07:34:51.641Z,73.16
2019-03-21T07:35:51.685Z,72.34
2019-03-21T07:36:51.622Z,72.24
2019-03-21T07:37:51.607Z,72.31
2019-03-21T07:38:51.609Z,72.61
2019-03-21T07:39:51.592Z,71.66
2019-03-21T07:40:51.598Z,70.64
2019-03-21T07:41:51.562Z,71.25
2019-03-21T07:42:51.552Z,71.25
2019-03-21T07:43:51.542Z,71.35
2019-03-21T07:44:51.566Z,70.64
2019-03-21T07:45:51.548Z,70.91
2019-03-21T07:46:51.516Z,70.91
2019-03-21T07:47:51.507Z,69.95
2019-03-21T07:48:51.544Z,69.34
2019-03-21T07:49:51.480Z,69.03
2019-03-21T07:50:51.491Z,69.54
2019-03-21T07:51:51.462Z,68.93
2019-03-21T07:52:51.445Z,68.90
2019-03-21T07:53:51.439Z,68.59
2019-03-21T07:54:51.444Z,68.69
2019-03-21T07:55:51.437Z,68.59
2019-03-21T07:56:51.401Z,68.25
2019-03-21T07:57:51.389Z,68.15
2019-03-21T07:58:51.381Z,67.50
2019-03-21T07:59:51.368Z,67.60
2019-03-21T08:00:51.388Z,66.86
2019-03-21T08:01:51.350Z,65.84
2019-03-21T08:02:51.353Z,65.53
2019-03-21T08:03:51.325Z,66.35
2019-03-21T08:04:51.316Z,66.75
2019-03-21T08:05:51.329Z,66.55
2019-03-21T08:06:51.675Z,66.31
2019-03-21T08:07:51.286Z,64.89
2019-03-21T08:08:51.289Z,65.70
2019-03-21T08:09:51.267Z,65.09
2019-03-21T08:10:51.381Z,65.33
2019-03-21T08:11:51.239Z,65.60
2019-03-21T08:12:51.233Z,65.60
2019-03-21T08:13:51.217Z,65.22
2019-03-21T08:14:51.206Z,65.12
2019-03-21T08:15:51.217Z,65.12
2019-03-21T08:16:51.183Z,65.73
2019-03-21T08:17:51.174Z,63.25
2019-03-21T08:18:51.168Z,63.04
2019-03-21T08:19:51.198Z,64.10
2019-03-21T08:20:57.233Z,64.71
2019-03-21T08:21:52.149Z,64.51
2019-03-21T08:22:51.130Z,65.33
2019-03-21T08:23:51.210Z,64.71
2019-03-21T08:24:51.110Z,64.81
2019-03-21T08:25:51.114Z,64.81
2019-03-21T08:26:51.076Z,66.07
2019-03-21T08:27:51.899Z,66.04
2019-03-21T08:28:51.059Z,65.80
2019-03-21T08:29:51.052Z,65.33
2019-03-21T08:30:51.062Z,65.30
2019-03-21T08:31:51.048Z,64.37
2019-03-21T08:32:51.014Z,64.48
2019-03-21T08:33:51.003Z,64.07
2019-03-21T08:34:50.990Z,65.70
2019-03-21T08:35:51.019Z,65.73
2019-03-21T08:36:50.971Z,64.99
2019-03-21T08:37:50.957Z,65.06
2019-03-21T08:38:50.951Z,64.96
2019-03-21T08:39:50.936Z,63.90
2019-03-21T08:40:50.926Z,63.70
2019-03-21T08:41:50.996Z,62.99
2019-03-21T08:42:50.903Z,62.27
2019-03-21T08:43:50.939Z,62.76
2019-03-21T08:44:50.879Z,62.35
2019-03-21T08:45:50.869Z,63.26
2019-03-21T08:46:50.879Z,63.47
2019-03-21T08:47:50.869Z,62.65
2019-03-21T08:48:50.840Z,62.37
2019-03-21T08:49:50.845Z,63.70
2019-03-21T08:50:50.817Z,63.16
2019-03-21T08:51:50.826Z,62.85
2019-03-21T08:52:50.796Z,62.76
2019-03-21T08:53:50.803Z,63.40
2019-03-21T08:54:50.819Z,63.26
2019-03-21T08:55:50.804Z,63.47
2019-03-21T08:56:50.928Z,63.57
2019-03-21T08:57:50.743Z,63.26
2019-03-21T08:58:50.726Z,63.54
2019-03-21T08:59:50.746Z,61.68
2019-03-21T09:00:50.732Z,62.18
2019-03-21T09:01:50.717Z,61.85
2019-03-21T09:02:50.684Z,61.68
2019-03-21T09:03:50.673Z,61.34
2019-03-21T09:04:50.663Z,61.65
2019-03-21T09:05:50.662Z,61.34
2019-03-21T09:06:52.686Z,60.42
2019-03-21T09:07:50.632Z,61.57
2019-03-21T09:08:50.624Z,62.05
2019-03-21T09:09:50.627Z,61.85
2019-03-21T09:10:50.652Z,61.00
2019-03-21T09:11:50.662Z,60.37
2019-03-21T09:12:50.580Z,59.35
2019-03-21T09:13:50.626Z,59.66
2019-03-21T09:14:50.557Z,59.83
2019-03-21T09:15:50.544Z,59.83
2019-03-21T09:16:50.647Z,56.77
2019-03-21T09:17:50.525Z,59.66
2019-03-21T09:18:50.518Z,58.13
2019-03-21T09:19:50.546Z,57.92
2019-03-21T09:20:50.517Z,58.15
2019-03-21T09:21:50.505Z,58.84
2019-03-21T09:22:50.481Z,58.44
2019-03-21T09:23:50.481Z,58.44
2019-03-21T09:24:50.449Z,59.66
2019-03-21T09:25:51.443Z,59.01
2019-03-21T09:26:50.521Z,58.69
2019-03-21T09:27:50.420Z,58.12
2019-03-21T09:28:50.405Z,57.61
2019-03-21T09:29:53.841Z,57.28
2019-03-21T09:30:50.795Z,56.16
2019-03-21T09:31:50.418Z,56.06
2019-03-21T09:32:50.371Z,56.16
2019-03-21T09:33:50.355Z,55.83
2019-03-21T09:34:50.342Z,54.08
2019-03-21T09:35:50.332Z,53.93
2019-03-21T09:36:50.347Z,55.66
2019-03-21T09:37:50.311Z,56.26
2019-03-21T09:38:50.303Z,55.32
2019-03-21T09:39:50.293Z,55.10
2019-03-21T09:40:50.336Z,53.91
2019-03-21T09:41:50.291Z,56.04
2019-03-21T09:42:50.274Z,55.71
2019-03-21T09:43:50.249Z,54.18
2019-03-21T09:44:50.239Z,52.73
2019-03-21T09:45:50.236Z,53.37
2019-03-21T09:46:51.167Z,53.27
2019-03-21T09:47:50.208Z,53.06
2019-03-21T09:48:50.200Z,51.75
2019-03-21T09:49:50.182Z,52.05
2019-03-21T09:50:50.175Z,52.66
2019-03-21T09:51:50.165Z,52.25
2019-03-21T09:52:50.182Z,51.93
2019-03-21T09:53:50.142Z,52.56
2019-03-21T09:54:50.131Z,52.76
2019-03-21T09:55:50.123Z,52.03
2019-03-21T09:56:50.111Z,52.13
2019-03-21T09:57:50.120Z,52.25
2019-03-21T09:58:50.089Z,52.15
2019-03-21T09:59:50.078Z,52.64
2019-03-21T10:00:50.069Z,51.67
2019-03-21T10:01:50.054Z,50.23
2019-03-21T10:02:50.117Z,49.90
2019-03-21T10:03:50.051Z,50.74
2019-03-21T10:04:50.037Z,51.02
2019-03-21T10:05:50.015Z,49.55
2019-03-21T10:06:50.001Z,49.24
2019-03-21T10:07:50.021Z,49.57
2019-03-21T10:08:49.983Z,49.16
2019-03-21T10:09:49.970Z,48.86
2019-03-21T10:10:49.963Z,49.65
2019-03-21T10:11:49.948Z,49.42
2019-03-21T10:12:49.966Z,48.82
2019-03-21T10:13:49.939Z,48.41
2019-03-21T10:14:49.928Z,48.61
2019-03-21T10:15:49.927Z,48.82
2019-03-21T10:16:49.895Z,51.17
2019-03-21T10:17:49.915Z,49.34
2019-03-21T10:18:49.893Z,49.02
2019-03-21T10:19:49.862Z,48.82
2019-03-21T10:20:49.856Z,48.90
2019-03-21T10:21:49.843Z,48.21
2019-03-21T10:22:49.862Z,47.47
2019-03-21T10:23:49.818Z,49.48
2019-03-21T10:24:49.811Z,47.38
2019-03-21T10:25:49.811Z,47.62
2019-03-21T10:26:49.788Z,49.04
2019-03-21T10:27:49.779Z,48.61
2019-03-21T10:28:49.789Z,48.49
2019-03-21T10:29:49.761Z,47.88
2019-03-21T10:30:49.748Z,46.99
2019-03-21T10:31:49.732Z,47.80
2019-03-21T10:32:49.724Z,48.18
2019-03-21T10:33:49.778Z,47.75
2019-03-21T10:34:49.702Z,48.06
2019-03-21T10:35:49.691Z,47.96
2019-03-21T10:36:49.704Z,49.38
2019-03-21T10:37:49.672Z,48.32
2019-03-21T10:38:49.681Z,46.48
2019-03-21T10:39:49.648Z,45.85
2019-03-21T10:40:49.643Z,45.95
2019-03-21T10:41:49.630Z,46.03
2019-03-21T10:42:49.623Z,45.50
2019-03-21T10:43:49.738Z,45.10
2019-03-21T10:44:49.609Z,44.19
2019-03-21T10:45:49.585Z,42.94
2019-03-21T10:46:49.653Z,42.74
2019-03-21T10:47:49.593Z,42.64
2019-03-21T10:48:49.574Z,41.67
2019-03-21T10:49:49.558Z,42.09
2019-03-21T10:50:49.556Z,42.58
2019-03-21T10:51:54.899Z,43.16
2019-03-21T10:52:50.540Z,41.97
2019-03-21T10:53:49.531Z,42.03
2019-03-21T10:54:49.488Z,41.73
2019-03-21T10:55:49.486Z,41.93
2019-03-21T10:56:49.465Z,42.32
2019-03-21T10:57:49.455Z,42.52
2019-03-21T10:58:49.576Z,43.42
2019-03-21T10:59:49.479Z,40.48
2019-03-21T11:00:49.432Z,40.70
2019-03-21T11:01:49.413Z,40.70
2019-03-21T11:02:49.493Z,41.39
2019-03-21T11:03:49.452Z,41.49
2019-03-21T11:04:49.408Z,42.47
2019-03-21T11:05:49.393Z,40.66
2019-03-21T11:06:49.361Z,41.75
2019-03-21T11:07:49.415Z,38.53
2019-03-21T11:08:49.380Z,39.45
2019-03-21T11:09:49.327Z,40.30
2019-03-21T11:10:49.332Z,41.95
2019-03-21T11:11:49.309Z,41.22
2019-03-21T11:12:49.306Z,42.05
2019-03-21T11:13:49.554Z,40.44
2019-03-21T11:14:49.309Z,40.64
2019-03-21T11:15:49.263Z,41.87
2019-03-21T11:16:49.256Z,40.23
2019-03-21T11:17:49.242Z,42.11
2019-03-21T11:18:49.233Z,40.97
2019-03-21T11:19:49.259Z,41.05
2019-03-21T11:20:49.210Z,40.62
2019-03-21T11:21:49.203Z,38.62
2019-03-21T11:22:49.185Z,38.23
2019-03-21T11:23:49.176Z,38.15
2019-03-21T11:24:49.201Z,38.27
2019-03-21T11:25:49.156Z,40.10
2019-03-21T11:26:49.144Z,39.70
2019-03-21T11:27:49.132Z,40.44
2019-03-21T11:28:49.126Z,40.56
2019-03-21T11:29:49.133Z,40.58
2019-03-21T11:30:49.097Z,42.25
2019-03-21T11:31:49.089Z,40.72
2019-03-21T11:32:49.075Z,38.17
2019-03-21T11:33:49.064Z,38.08
2019-03-21T11:34:49.078Z,38.47
2019-03-21T11:35:49.041Z,37.96
2019-03-21T11:36:49.030Z,37.78
2019-03-21T11:37:49.019Z,38.39
2019-03-21T11:38:49.021Z,39.63
2019-03-21T11:39:49.031Z,39.81
2019-03-21T11:40:48.994Z,40.82
2019-03-21T11:41:48.985Z,38.87
2019-03-21T11:42:49.022Z,37.54
2019-03-21T11:43:48.990Z,37.41
2019-03-21T11:44:48.981Z,38.68
2019-03-21T11:45:48.931Z,36.87
2019-03-21T11:46:48.921Z,37.59
2019-03-21T11:47:48.919Z,38.29
2019-03-21T11:48:48.965Z,37.77
2019-03-21T11:49:48.920Z,36.23
2019-03-21T11:50:48.939Z,35.91
2019-03-21T11:51:48.867Z,36.92
2019-03-21T11:52:48.852Z,35.31
2019-03-21T11:53:48.864Z,34.80
2019-03-21T11:54:48.831Z,35.18
2019-03-21T11:55:48.842Z,35.88
2019-03-21T11:56:48.822Z,36.46
2019-03-21T11:57:48.805Z,36.46
2019-03-21T11:58:48.798Z,35.96
2019-03-21T11:59:51.794Z,35.36
2019-03-21T12:00:48.947Z,35.44
2019-03-21T12:01:48.841Z,34.16
2019-03-21T12:02:48.740Z,35.14
2019-03-21T12:03:48.740Z,34.36
2019-03-21T12:04:48.908Z,35.38
2019-03-21T12:05:48.749Z,36.08
2019-03-21T12:06:49.012Z,35.82
2019-03-21T12:07:48.687Z,35.61
2019-03-21T12:08:48.677Z,35.61
2019-03-21T12:09:48.903Z,35.77
2019-03-21T12:10:48.925Z,35.98
2019-03-21T12:11:48.996Z,37.59
2019-03-21T12:12:48.639Z,37.85
2019-03-21T12:13:48.622Z,37.12
2019-03-21T12:14:48.612Z,37.00
2019-03-21T12:15:48.622Z,36.28
2019-03-21T12:16:48.590Z,35.26
2019-03-21T12:17:48.582Z,35.26
2019-03-21T12:18:48.568Z,34.06
2019-03-21T12:19:48.560Z,35.18
2019-03-21T12:20:48.592Z,35.98
2019-03-21T12:21:48.538Z,34.96
2019-03-21T12:22:48.587Z,34.34
2019-03-21T12:23:48.550Z,33.94
2019-03-21T12:24:48.507Z,35.16
2019-03-21T12:25:48.551Z,33.96
2019-03-21T12:26:48.481Z,33.66
2019-03-21T12:27:48.471Z,33.26
2019-03-21T12:28:48.484Z,32.46
2019-03-21T12:29:48.455Z,33.37
2019-03-21T12:30:48.460Z,34.78
2019-03-21T12:31:48.428Z,35.46
2019-03-21T12:32:48.416Z,34.56
2019-03-21T12:33:48.408Z,34.36
2019-03-21T12:34:48.396Z,33.74
2019-03-21T12:35:48.407Z,33.84
2019-03-21T12:36:48.371Z,34.44
2019-03-21T12:37:48.362Z,33.46
2019-03-21T12:38:48.371Z,35.46
2019-03-21T12:39:48.341Z,35.46
2019-03-21T12:40:48.369Z,34.44
2019-03-21T12:41:48.322Z,34.44
2019-03-21T12:42:48.309Z,33.83
2019-03-21T12:43:48.303Z,33.71
2019-03-21T12:44:49.575Z,31.12
2019-03-21T12:45:48.300Z,33.71
2019-03-21T12:46:48.288Z,32.81
2019-03-21T12:47:48.256Z,33.43
2019-03-21T12:48:48.243Z,33.56
2019-03-21T12:49:48.233Z,34.66
2019-03-21T12:50:48.240Z,33.44
2019-03-21T12:51:48.238Z,34.03
2019-03-21T12:52:48.199Z,32.82